Time;durP1;ratioP1;P1;durP2;ratioP2;P2;SDS_P1;SDS_P2;PMS_P1;PMS_P2;Temp;Humidity;BMP_temperature;BMP_pressure;BME280_temperature;BME280_humidity;BME280_pressure;Samples;Min_cycle;Max_cycle;Signal;HPM_P1;HPM_P2
2023/12/27 00:01:50;;;;;;;12.70;8.50;;;;;;;14.57;49.36;101173.65;106852;1271;25404;-52
2023/12/27 00:04:20;;;;;;;11.00;7.30;;;;;;;14.55;49.29;101173.87;107083;1261;24239;-52
2023/12/27 00:06:47;;;;;;;11.90;8.70;;;;;;;14.52;49.22;101177.66;107107;1251;25356;-52
2023/12/27 00:09:14;;;;;;;12.40;6.90;;;;;;;14.49;49.32;101183.16;107038;1264;25479;-52
2023/12/27 00:11:41;;;;;;;10.50;6.50;;;;;;;14.46;49.38;101180.30;106892;1257;292305;-52
2023/12/27 00:14:08;;;;;;;8.30;5.80;;;;;;;14.43;49.47;101185.44;107011;1263;25476;-54
2023/12/27 00:16:36;;;;;;;11.00;7.10;;;;;;;14.41;49.54;101190.23;107137;1256;23860;-52
2023/12/27 00:19:03;;;;;;;12.20;6.60;;;;;;;14.38;49.55;101196.25;107152;1258;25331;-52
2023/12/27 00:21:30;;;;;;;11.00;6.50;;;;;;;14.34;49.66;101196.52;107037;1271;25359;-51
2023/12/27 00:23:57;;;;;;;10.30;6.20;;;;;;;14.31;49.81;101206.40;106816;1264;25487;-51
2023/12/27 00:26:26;;;;;;;8.10;6.00;;;;;;;14.28;49.86;101208.05;107083;1263;25561;-51
2023/12/27 00:28:57;;;;;;;9.80;6.20;;;;;;;14.26;50.03;101209.64;107008;1256;25367;-51
2023/12/27 00:31:24;;;;;;;7.60;5.70;;;;;;;14.25;50.03;101210.40;107128;1257;25351;-52
2023/12/27 00:33:52;;;;;;;9.10;5.50;;;;;;;14.23;50.25;101207.14;107076;1258;25318;-52
2023/12/27 00:36:28;;;;;;;8.00;5.10;;;;;;;14.22;50.26;101205.61;107122;1257;25490;-51
2023/12/27 00:38:56;;;;;;;8.90;5.60;;;;;;;14.21;50.44;101210.34;107185;1257;25364;-52
2023/12/27 00:41:23;;;;;;;8.60;5.50;;;;;;;14.20;50.50;101215.08;107091;1257;25284;-51
2023/12/27 00:43:50;;;;;;;12.10;5.20;;;;;;;14.19;50.53;101214.93;107178;1263;25342;-51
2023/12/27 00:46:17;;;;;;;10.20;5.50;;;;;;;14.19;50.64;101212.14;107093;1266;25390;-51
2023/12/27 00:48:44;;;;;;;8.60;4.90;;;;;;;14.19;50.71;101210.58;107072;1256;25331;-51
2023/12/27 00:51:20;;;;;;;11.30;5.10;;;;;;;14.18;50.71;101209.73;107137;1267;25334;-51
2023/12/27 00:53:48;;;;;;;8.50;4.90;;;;;;;14.16;50.71;101207.00;107102;1263;22539;-51
2023/12/27 00:56:15;;;;;;;6.60;4.50;;;;;;;14.15;50.77;101205.11;107111;1260;25395;-51
2023/12/27 00:58:42;;;;;;;7.00;4.70;;;;;;;14.14;50.69;101204.08;106982;1257;25389;-51
2023/12/27 01:01:11;;;;;;;8.90;5.20;;;;;;;14.14;50.80;101214.92;106877;1260;25328;-51
2023/12/27 01:03:40;;;;;;;8.50;5.10;;;;;;;14.12;50.80;101217.23;107124;1251;24031;-51
2023/12/27 01:06:09;;;;;;;10.70;4.80;;;;;;;14.12;50.61;101224.05;106527;1260;22533;-53
2023/12/27 01:08:36;;;;;;;7.20;4.40;;;;;;;14.10;50.63;101230.55;107009;1257;24240;-52
2023/12/27 01:11:04;;;;;;;6.20;4.50;;;;;;;14.09;50.71;101235.13;107150;1257;25328;-51
2023/12/27 01:13:32;;;;;;;9.60;4.40;;;;;;;14.07;50.66;101239.36;106925;1267;25354;-51
2023/12/27 01:16:00;;;;;;;8.00;4.80;;;;;;;14.05;50.61;101255.47;107171;1256;25353;-51
2023/12/27 01:18:27;;;;;;;9.80;5.20;;;;;;;14.03;50.52;101260.22;107117;1257;25351;-51
2023/12/27 01:20:54;;;;;;;7.30;4.80;;;;;;;14.01;50.46;101258.37;107045;1257;25398;-51
2023/12/27 01:23:22;;;;;;;7.90;5.00;;;;;;;13.99;50.54;101263.33;107105;1257;25356;-51
2023/12/27 01:25:49;;;;;;;9.00;5.20;;;;;;;13.97;50.57;101262.16;106779;1260;25488;-51
2023/12/27 01:28:18;;;;;;;10.60;6.30;;;;;;;13.94;50.62;101261.52;106772;1274;25403;-51
2023/12/27 01:30:45;;;;;;;9.80;5.80;;;;;;;13.93;50.64;101263.64;107095;1264;25332;-51
2023/12/27 01:33:12;;;;;;;9.10;5.80;;;;;;;13.92;50.82;101249.89;106866;1263;24213;-51
2023/12/27 01:35:40;;;;;;;10.90;6.50;;;;;;;13.92;50.82;101247.98;107197;1258;25331;-51
2023/12/27 01:38:07;;;;;;;10.10;5.90;;;;;;;13.93;50.91;101247.43;107125;1263;22530;-52
2023/12/27 01:40:34;;;;;;;8.60;5.40;;;;;;;13.92;50.94;101248.70;106099;1261;1003050;-51
2023/12/27 01:43:01;;;;;;;7.80;5.20;;;;;;;13.90;51.00;101249.79;107126;1253;22539;-51
2023/12/27 01:45:28;;;;;;;9.20;6.00;;;;;;;13.91;51.09;101242.63;106869;1257;25410;-51
2023/12/27 01:47:55;;;;;;;7.80;5.40;;;;;;;13.91;51.01;101229.52;106159;1257;1002843;-52
2023/12/27 01:50:23;;;;;;;8.10;6.40;;;;;;;13.93;51.01;101226.85;105961;1267;1003016;-53
2023/12/27 01:52:50;;;;;;;9.90;5.40;;;;;;;13.91;50.74;101229.36;106912;1257;25360;-52
2023/12/27 01:55:17;;;;;;;7.40;5.20;;;;;;;13.81;50.79;101230.33;107089;1253;25278;-51
2023/12/27 01:57:44;;;;;;;9.10;5.30;;;;;;;13.70;50.70;101240.73;107080;1254;25328;-51
2023/12/27 02:00:12;;;;;;;9.00;5.40;;;;;;;13.57;50.70;101252.23;106945;1258;25328;-51
2023/12/27 02:02:41;;;;;;;9.40;5.30;;;;;;;13.44;50.80;101259.37;106729;1257;25348;-52
2023/12/27 02:05:09;;;;;;;9.80;6.60;;;;;;;13.31;51.04;101262.51;106259;1269;1002983;-51
2023/12/27 02:07:36;;;;;;;9.50;7.00;;;;;;;13.19;51.39;101266.48;107101;1257;25337;-51
2023/12/27 02:10:04;;;;;;;10.80;6.80;;;;;;;13.09;51.71;101261.47;106824;1267;25454;-52
2023/12/27 02:12:31;;;;;;;11.60;7.50;;;;;;;13.06;51.95;101254.58;107109;1260;22731;-52
2023/12/27 02:14:58;;;;;;;15.10;9.30;;;;;;;13.03;52.00;101262.63;106820;1261;25328;-52
2023/12/27 02:17:27;;;;;;;12.80;8.30;;;;;;;13.01;52.21;101267.36;107145;1254;25820;-52
2023/12/27 02:19:54;;;;;;;13.60;8.00;;;;;;;13.04;52.29;101282.30;106914;1254;22538;-52
2023/12/27 02:22:25;;;;;;;11.40;7.60;;;;;;;13.10;52.19;101287.77;106715;1269;25490;-52
2023/12/27 02:24:53;;;;;;;10.00;7.20;;;;;;;13.16;52.01;101293.88;106396;1270;25548;-52
2023/12/27 02:27:21;;;;;;;11.80;7.80;;;;;;;13.23;51.70;101301.58;106863;1266;25351;-51
2023/12/27 02:29:48;;;;;;;9.50;7.40;;;;;;;13.28;51.55;101301.26;106864;1261;25346;-51
2023/12/27 02:32:15;;;;;;;12.40;7.50;;;;;;;13.33;51.34;101302.02;106850;1257;25399;-51
2023/12/27 02:34:42;;;;;;;16.00;8.50;;;;;;;13.37;51.16;101300.52;106832;1258;23887;-52
2023/12/27 02:37:10;;;;;;;13.90;8.70;;;;;;;13.38;51.06;101297.36;106765;1261;23440;-52
2023/12/27 02:39:36;;;;;;;9.80;8.10;;;;;;;13.35;50.99;101298.31;106747;1257;25287;-51
2023/12/27 02:42:05;;;;;;;14.00;9.20;;;;;;;13.35;50.95;101293.44;106761;1266;25475;-51
2023/12/27 02:44:32;;;;;;;13.90;9.00;;;;;;;13.34;51.00;101293.62;106834;1260;25360;-52
2023/12/27 02:47:01;;;;;;;12.40;8.50;;;;;;;13.35;50.91;101299.02;106832;1267;22530;-51
2023/12/27 02:49:28;;;;;;;14.40;8.10;;;;;;;13.36;50.92;101298.27;106829;1261;25321;-51
2023/12/27 02:51:56;;;;;;;11.60;7.90;;;;;;;13.38;50.87;101296.31;106956;1261;25516;-51
2023/12/27 02:54:23;;;;;;;12.10;8.60;;;;;;;13.40;50.88;101291.73;107044;1265;24383;-51
2023/12/27 02:56:50;;;;;;;11.80;8.30;;;;;;;13.43;50.84;101289.23;106326;1252;1003201;-51
2023/12/27 02:59:17;;;;;;;12.40;7.60;;;;;;;13.44;50.84;101286.58;107065;1256;25484;-52
2023/12/27 03:01:44;;;;;;;11.90;7.40;;;;;;;13.46;50.73;101286.52;107116;1251;22624;-51
2023/12/27 03:04:12;;;;;;;11.10;7.20;;;;;;;13.48;50.63;101293.27;106341;1257;1003698;-52
2023/12/27 03:06:39;;;;;;;9.70;7.30;;;;;;;13.48;50.52;101296.58;107020;1256;25356;-52
2023/12/27 03:09:06;;;;;;;13.30;6.50;;;;;;;13.49;50.50;101293.25;106936;1258;25419;-52
2023/12/27 03:11:33;;;;;;;9.50;6.50;;;;;;;13.49;50.48;101290.30;106988;1257;25328;-51
2023/12/27 03:14:01;;;;;;;9.30;6.90;;;;;;;13.49;50.38;101297.44;107085;1251;25341;-51
2023/12/27 03:16:28;;;;;;;12.20;7.30;;;;;;;13.49;50.44;101298.13;107107;1259;22544;-51
2023/12/27 03:18:56;;;;;;;10.00;7.60;;;;;;;13.48;50.44;101300.76;106960;1258;25542;-51
2023/12/27 03:21:24;;;;;;;11.20;7.70;;;;;;;13.46;50.62;101312.49;106794;1261;24229;-51
2023/12/27 03:23:51;;;;;;;11.30;7.30;;;;;;;13.44;50.70;101311.66;106843;1260;25359;-51
2023/12/27 03:26:18;;;;;;;11.80;8.20;;;;;;;13.45;50.78;101314.80;106794;1261;25455;-51
2023/12/27 03:28:45;;;;;;;10.90;7.80;;;;;;;13.43;50.80;101318.83;107135;1257;25458;-52
2023/12/27 03:31:13;;;;;;;10.10;6.80;;;;;;;13.44;50.73;101327.35;106422;1274;25336;-51
2023/12/27 03:33:40;;;;;;;11.10;8.70;;;;;;;13.44;50.84;101341.13;107138;1252;24234;-51
2023/12/27 03:36:08;;;;;;;14.30;8.30;;;;;;;13.50;50.69;101345.14;106750;1267;25359;-51
2023/12/27 03:38:35;;;;;;;12.10;8.20;;;;;;;13.54;50.60;101353.45;106831;1258;25330;-51
2023/12/27 03:41:03;;;;;;;11.30;7.70;;;;;;;13.52;50.65;101356.60;106626;1273;25348;-52
2023/12/27 03:43:31;;;;;;;12.30;7.70;;;;;;;13.54;50.64;101354.85;106924;1262;22577;-51
2023/12/27 03:46:00;;;;;;;11.70;7.40;;;;;;;13.58;50.53;101356.14;106791;1268;25354;-52
2023/12/27 03:48:27;;;;;;;10.30;7.10;;;;;;;13.59;50.54;101364.30;107095;1256;25408;-52
2023/12/27 03:50:54;;;;;;;10.90;7.20;;;;;;;13.60;50.51;101368.27;106118;1257;1003332;-52
2023/12/27 03:53:21;;;;;;;14.10;7.80;;;;;;;13.56;50.66;101368.90;107107;1256;25342;-52
2023/12/27 03:55:49;;;;;;;11.80;8.20;;;;;;;13.57;50.66;101377.58;107145;1257;23348;-52
2023/12/27 03:58:15;;;;;;;11.90;8.10;;;;;;;13.56;50.74;101376.91;107047;1253;25366;-51
2023/12/27 04:00:42;;;;;;;8.60;7.20;;;;;;;13.53;50.88;101382.39;107232;1258;25364;-52
2023/12/27 04:03:10;;;;;;;10.20;7.40;;;;;;;13.48;51.00;101381.27;106891;1255;25341;-52
2023/12/27 04:05:37;;;;;;;11.60;7.60;;;;;;;13.44;51.12;101378.25;107029;1256;25376;-52
2023/12/27 04:08:05;;;;;;;9.50;7.60;;;;;;;13.39;51.27;101380.12;107040;1260;25403;-52
2023/12/27 04:10:32;;;;;;;10.80;7.90;;;;;;;13.29;51.61;101383.13;107212;1256;25666;-52
2023/12/27 04:12:59;;;;;;;10.90;7.80;;;;;;;13.34;51.43;101382.48;107071;1257;25397;-52
2023/12/27 04:15:26;;;;;;;9.50;7.50;;;;;;;13.34;51.46;101385.45;107134;1256;25356;-52
2023/12/27 04:17:53;;;;;;;12.00;8.50;;;;;;;13.28;51.68;101385.77;107054;1264;25477;-52
2023/12/27 04:20:24;;;;;;;10.00;8.10;;;;;;;13.08;52.06;101391.43;107110;1255;25383;-52
2023/12/27 04:22:51;;;;;;;11.80;8.60;;;;;;;13.04;52.29;101397.96;107116;1257;25305;-52
2023/12/27 04:25:18;;;;;;;10.70;7.30;;;;;;;13.07;52.31;101401.38;106787;1259;24211;-52
2023/12/27 04:27:45;;;;;;;13.20;8.10;;;;;;;13.13;52.26;101399.87;107092;1272;25342;-52
2023/12/27 04:30:12;;;;;;;11.10;8.30;;;;;;;13.19;52.11;101401.83;107074;1257;25447;-52
2023/12/27 04:32:40;;;;;;;12.40;8.40;;;;;;;13.25;52.01;101396.81;107079;1260;25350;-52
2023/12/27 04:35:07;;;;;;;12.80;7.80;;;;;;;13.29;51.84;101396.55;107131;1256;25360;-53
2023/12/27 04:37:34;;;;;;;11.20;8.20;;;;;;;13.33;51.72;101393.66;106570;1267;25432;-52
2023/12/27 04:40:01;;;;;;;13.90;9.20;;;;;;;13.36;51.60;101391.52;107130;1263;25405;-52
2023/12/27 04:42:28;;;;;;;11.10;8.30;;;;;;;13.38;51.50;101392.86;107020;1257;23424;-53
2023/12/27 04:44:56;;;;;;;11.10;8.20;;;;;;;13.39;51.43;101394.58;107072;1262;25387;-52
2023/12/27 04:47:23;;;;;;;11.10;8.50;;;;;;;13.41;51.31;101392.80;107176;1253;25291;-52
2023/12/27 04:49:50;;;;;;;12.90;8.60;;;;;;;13.41;51.15;101408.48;107100;1257;25370;-53
2023/12/27 04:52:18;;;;;;;11.00;7.80;;;;;;;13.41;51.06;101415.63;107093;1256;24240;-52
2023/12/27 04:54:45;;;;;;;12.70;8.50;;;;;;;13.41;50.96;101425.21;106888;1257;25367;-52
2023/12/27 04:57:12;;;;;;;12.90;8.60;;;;;;;13.40;50.89;101429.40;107053;1256;25468;-52
2023/12/27 04:59:39;;;;;;;13.70;8.90;;;;;;;13.39;50.90;101435.18;106743;1265;22590;-52
2023/12/27 05:02:07;;;;;;;10.00;7.50;;;;;;;13.39;50.86;101436.56;106973;1257;25406;-52
2023/12/27 05:04:34;;;;;;;11.10;7.90;;;;;;;13.39;50.90;101434.14;107109;1267;25338;-52
2023/12/27 05:07:01;;;;;;;11.60;8.20;;;;;;;13.38;50.90;101433.47;107122;1258;25444;-52
2023/12/27 05:09:28;;;;;;;11.20;8.80;;;;;;;13.37;50.79;101437.66;107166;1257;25590;-52
2023/12/27 05:11:56;;;;;;;11.40;8.90;;;;;;;13.36;50.84;101444.48;107105;1256;25338;-52
2023/12/27 05:14:23;;;;;;;14.00;9.20;;;;;;;13.35;50.83;101441.73;106803;1260;25419;-53
2023/12/27 05:16:50;;;;;;;12.60;8.80;;;;;;;13.34;50.88;101445.22;107089;1255;22528;-52
2023/12/27 05:19:18;;;;;;;14.70;9.10;;;;;;;13.34;50.88;101445.59;107041;1257;25411;-52
2023/12/27 05:21:45;;;;;;;13.10;8.70;;;;;;;13.33;50.86;101451.00;107068;1256;25438;-52
2023/12/27 05:24:12;;;;;;;12.40;8.90;;;;;;;13.33;50.80;101467.21;107065;1256;25360;-52
2023/12/27 05:26:39;;;;;;;13.90;8.10;;;;;;;13.32;50.79;101464.97;107058;1258;25328;-52
2023/12/27 05:29:06;;;;;;;14.80;8.60;;;;;;;13.33;50.83;101468.77;107036;1257;25360;-53
2023/12/27 05:31:33;;;;;;;13.90;8.50;;;;;;;13.31;50.75;101469.69;106884;1257;22655;-52
2023/12/27 05:34:01;;;;;;;9.30;7.10;;;;;;;13.38;50.57;101480.35;107127;1256;25334;-52
2023/12/27 05:36:28;;;;;;;10.00;8.10;;;;;;;13.42;50.40;101481.31;107043;1256;25418;-52
2023/12/27 05:38:55;;;;;;;9.80;7.00;;;;;;;13.48;50.28;101490.04;107037;1256;25439;-52
2023/12/27 05:41:25;;;;;;;10.90;8.10;;;;;;;13.50;50.21;101494.00;107060;1256;25370;-52
2023/12/27 05:43:55;;;;;;;10.80;8.60;;;;;;;13.50;50.33;101501.00;107204;1253;25342;-52
2023/12/27 05:46:23;;;;;;;10.10;7.50;;;;;;;13.49;50.34;101508.68;107081;1251;25347;-52
2023/12/27 05:48:49;;;;;;;12.30;7.10;;;;;;;13.49;50.35;101507.10;106879;1258;23867;-52
2023/12/27 05:51:16;;;;;;;11.30;8.10;;;;;;;13.49;50.29;101511.98;106948;1257;25342;-52
2023/12/27 05:53:43;;;;;;;11.80;7.90;;;;;;;13.50;50.31;101512.82;106734;1260;22540;-52
2023/12/27 05:56:10;;;;;;;9.20;7.80;;;;;;;13.51;50.29;101518.92;107166;1257;25404;-52
2023/12/27 05:58:38;;;;;;;11.40;7.40;;;;;;;13.52;50.13;101526.38;107057;1257;25420;-52
2023/12/27 06:01:05;;;;;;;14.20;9.30;;;;;;;13.52;49.99;101528.83;107237;1253;25320;-52
2023/12/27 06:03:33;;;;;;;11.00;8.30;;;;;;;13.52;50.01;101535.45;106945;1256;25405;-52
2023/12/27 06:06:02;;;;;;;12.20;8.70;;;;;;;13.42;49.95;101545.45;106678;1271;25363;-52
2023/12/27 06:08:29;;;;;;;11.10;8.30;;;;;;;13.46;49.82;101543.95;106773;1263;25491;-52
2023/12/27 06:10:57;;;;;;;15.50;7.90;;;;;;;13.45;49.83;101542.73;107017;1258;25367;-52
2023/12/27 06:13:24;;;;;;;13.60;7.60;;;;;;;13.41;49.89;101547.88;107187;1256;26204;-52
2023/12/27 06:15:51;;;;;;;10.60;7.40;;;;;;;13.34;49.91;101552.58;106745;1273;25441;-52
2023/12/27 06:18:18;;;;;;;10.20;6.50;;;;;;;13.27;50.05;101561.25;106799;1267;25434;-52
2023/12/27 06:20:45;;;;;;;9.60;7.30;;;;;;;13.18;50.12;101569.45;107043;1256;25341;-52
2023/12/27 06:23:12;;;;;;;12.40;7.60;;;;;;;13.09;50.25;101583.55;107099;1256;25418;-52
2023/12/27 06:25:39;;;;;;;8.90;5.70;;;;;;;12.99;50.38;101588.05;106900;1258;25339;-52
2023/12/27 06:28:06;;;;;;;10.80;7.80;;;;;;;12.93;50.60;101598.45;106985;1254;24346;-51
2023/12/27 06:30:33;;;;;;;8.30;6.20;;;;;;;12.89;50.67;101599.40;107050;1253;25338;-52
2023/12/27 06:33:01;;;;;;;10.80;7.10;;;;;;;12.87;50.72;101599.42;107113;1257;25367;-52
2023/12/27 06:35:30;;;;;;;10.10;6.40;;;;;;;12.91;50.76;101605.45;107121;1253;25359;-52
2023/12/27 06:37:56;;;;;;;8.10;6.30;;;;;;;12.98;50.70;101610.54;106860;1256;22526;-51
2023/12/27 06:40:24;;;;;;;8.40;6.10;;;;;;;13.05;50.59;101610.25;107203;1258;25351;-52
2023/12/27 06:42:51;;;;;;;10.80;7.00;;;;;;;13.14;50.52;101623.38;107090;1257;25391;-52
2023/12/27 06:45:18;;;;;;;10.50;7.60;;;;;;;13.21;50.44;101630.55;107170;1257;25342;-52
2023/12/27 06:47:45;;;;;;;9.20;6.60;;;;;;;13.28;50.40;101631.12;107004;1258;23919;-52
2023/12/27 06:50:12;;;;;;;11.30;8.60;;;;;;;13.35;50.37;101631.84;107077;1259;22523;-52
2023/12/27 06:52:39;;;;;;;9.40;7.60;;;;;;;13.43;50.24;101640.05;107092;1252;25356;-52
2023/12/27 06:55:07;;;;;;;8.70;6.10;;;;;;;13.49;50.01;101642.88;107155;1256;25366;-52
2023/12/27 06:57:34;;;;;;;6.20;5.40;;;;;;;13.53;49.60;101645.24;106908;1260;25383;-52
2023/12/27 07:00:01;;;;;;;7.50;5.30;;;;;;;13.57;49.42;101642.05;107028;1264;25394;-52
2023/12/27 07:02:29;;;;;;;7.60;5.40;;;;;;;13.59;49.23;101644.43;106762;1274;25334;-52
2023/12/27 07:04:56;;;;;;;5.30;4.60;;;;;;;13.60;49.27;101651.05;107024;1254;25386;-52
2023/12/27 07:07:23;;;;;;;7.50;5.00;;;;;;;13.62;49.25;101656.75;107052;1264;25328;-52
2023/12/27 07:09:50;;;;;;;5.60;4.40;;;;;;;13.63;49.13;101658.13;107162;1256;25512;-52
2023/12/27 07:12:18;;;;;;;5.40;3.90;;;;;;;13.64;49.29;101665.27;107182;1256;25428;-52
2023/12/27 07:14:44;;;;;;;6.20;4.20;;;;;;;13.61;49.39;101671.95;107123;1252;22657;-52
2023/12/27 07:17:11;;;;;;;5.20;3.90;;;;;;;13.69;49.47;101677.02;106468;1256;1002877;-52
2023/12/27 07:19:38;;;;;;;6.40;3.90;;;;;;;13.74;49.60;101689.12;107058;1256;24231;-52
2023/12/27 07:22:06;;;;;;;7.60;4.50;;;;;;;13.79;49.70;101692.15;107151;1259;25418;-52
2023/12/27 07:24:34;;;;;;;5.30;4.30;;;;;;;13.86;49.78;101696.54;106565;1262;25355;-52
2023/12/27 07:27:00;;;;;;;6.40;4.10;;;;;;;13.96;49.80;101702.45;106894;1255;24276;-52
2023/12/27 07:29:28;;;;;;;5.00;3.50;;;;;;;13.96;49.90;101710.47;106768;1260;25342;-52
2023/12/27 07:31:55;;;;;;;4.00;3.00;;;;;;;14.14;49.65;101706.94;106115;1261;1003007;-52
2023/12/27 07:34:22;;;;;;;6.50;3.30;;;;;;;14.29;49.37;101712.92;106819;1274;22555;-52
2023/12/27 07:36:51;;;;;;;4.60;3.00;;;;;;;14.41;49.04;101720.00;107068;1255;22544;-52
2023/12/27 07:39:18;;;;;;;5.60;3.40;;;;;;;14.49;48.85;101724.70;107191;1256;25421;-52
2023/12/27 07:41:45;;;;;;;5.80;3.30;;;;;;;14.56;48.56;101734.84;107121;1256;25369;-52
2023/12/27 07:44:12;;;;;;;5.70;3.50;;;;;;;14.61;48.56;101742.76;107128;1253;25462;-52
2023/12/27 07:46:39;;;;;;;4.50;3.40;;;;;;;14.69;48.44;101746.08;107199;1252;22550;-52
2023/12/27 07:49:08;;;;;;;4.80;3.20;;;;;;;14.77;48.25;101748.87;106735;1271;25491;-52
2023/12/27 07:51:35;;;;;;;8.10;4.80;;;;;;;14.83;48.12;101755.55;106858;1264;22523;-52
2023/12/27 07:54:03;;;;;;;4.90;3.30;;;;;;;14.87;47.81;101765.05;106850;1258;25369;-52
2023/12/27 07:56:30;;;;;;;5.10;3.30;;;;;;;14.90;47.68;101767.43;107027;1257;24355;-52
2023/12/27 07:58:57;;;;;;;5.10;3.60;;;;;;;14.92;47.66;101772.27;107017;1253;25367;-52
2023/12/27 08:01:30;;;;;;;4.40;2.90;;;;;;;14.98;47.62;101778.42;107193;1253;25367;-52
2023/12/27 08:03:58;;;;;;;5.90;3.80;;;;;;;15.03;47.47;101778.98;107154;1253;25400;-52
2023/12/27 08:06:28;;;;;;;4.50;3.80;;;;;;;15.09;47.39;101784.60;107096;1252;22593;-52
2023/12/27 08:08:55;;;;;;;5.80;3.20;;;;;;;15.18;47.46;101785.81;107063;1272;22916;-52
2023/12/27 08:11:23;;;;;;;4.90;3.50;;;;;;;15.25;47.44;101783.00;107152;1258;24493;-52
2023/12/27 08:13:51;;;;;;;7.50;4.00;;;;;;;15.34;47.31;101781.38;106823;1256;25334;-52
2023/12/27 08:16:18;;;;;;;5.20;4.00;;;;;;;15.42;47.12;101777.86;107159;1259;23867;-52
2023/12/27 08:18:45;;;;;;;6.40;3.80;;;;;;;15.48;46.74;101776.49;107064;1256;25334;-52
2023/12/27 08:21:12;;;;;;;5.50;3.80;;;;;;;15.52;46.51;101777.63;107040;1257;25418;-52
2023/12/27 08:23:39;;;;;;;5.50;3.90;;;;;;;15.54;46.11;101780.36;107126;1257;27311;-53
2023/12/27 08:26:08;;;;;;;6.30;3.80;;;;;;;15.55;45.77;101782.59;107004;1267;25555;-53
2023/12/27 08:28:35;;;;;;;7.70;4.60;;;;;;;15.58;45.53;101784.81;106885;1259;22644;-52
2023/12/27 08:31:06;;;;;;;5.60;4.20;;;;;;;15.61;45.45;101783.48;106914;1261;25371;-52
2023/12/27 08:33:35;;;;;;;5.90;4.70;;;;;;;15.64;45.24;101790.06;106954;1269;25342;-52
2023/12/27 08:36:03;;;;;;;7.50;4.80;;;;;;;15.64;45.23;101795.66;107117;1252;25454;-52
2023/12/27 08:38:32;;;;;;;5.20;4.10;;;;;;;15.65;45.03;101790.21;106849;1259;23860;-52
2023/12/27 08:40:59;;;;;;;6.10;4.20;;;;;;;15.65;44.83;101790.73;107227;1256;24277;-52
2023/12/27 08:43:29;;;;;;;4.00;2.60;;;;;;;15.64;44.15;101792.87;107136;1256;25450;-53
2023/12/27 08:45:56;;;;;;;3.80;2.20;;;;;;;15.63;43.20;101793.96;107121;1254;22667;-52
2023/12/27 08:48:23;;;;;;;3.80;2.90;;;;;;;15.64;42.78;101792.33;107171;1255;25393;-52
2023/12/27 08:50:52;;;;;;;2.40;1.80;;;;;;;15.66;42.72;101790.88;106786;1261;25400;-53
2023/12/27 08:53:19;;;;;;;3.10;2.20;;;;;;;15.68;42.38;101792.41;106895;1265;24284;-53
2023/12/27 08:55:46;;;;;;;2.40;1.70;;;;;;;15.70;41.81;101792.53;107175;1256;25316;-53
2023/12/27 08:58:13;;;;;;;2.90;2.00;;;;;;;15.71;41.62;101795.30;107033;1256;25352;-52
2023/12/27 09:00:40;;;;;;;5.20;2.30;;;;;;;15.70;41.54;101799.70;107130;1253;25475;-53
2023/12/27 09:03:09;;;;;;;2.40;1.70;;;;;;;15.72;41.18;101806.64;107118;1258;25367;-52
2023/12/27 09:05:36;;;;;;;2.70;1.60;;;;;;;15.74;40.76;101805.88;107104;1252;25339;-53
2023/12/27 09:08:03;;;;;;;2.50;1.80;;;;;;;15.77;40.81;101804.41;107031;1254;25419;-52
2023/12/27 09:10:31;;;;;;;2.00;1.40;;;;;;;15.79;40.78;101811.35;106894;1259;25369;-52
2023/12/27 09:12:58;;;;;;;1.60;1.50;;;;;;;15.80;40.83;101814.48;106896;1258;25364;-53
2023/12/27 09:15:25;;;;;;;6.20;1.60;;;;;;;15.80;40.92;101810.46;107105;1256;25491;-53
2023/12/27 09:17:53;;;;;;;1.80;1.60;;;;;;;15.81;40.81;101811.48;107218;1256;25281;-53
2023/12/27 09:20:20;;;;;;;2.20;1.90;;;;;;;15.80;40.85;101813.60;107058;1256;25332;-53
2023/12/27 09:22:48;;;;;;;3.00;2.10;;;;;;;15.80;40.89;101820.08;107142;1256;25342;-53
2023/12/27 09:25:15;;;;;;;7.00;2.60;;;;;;;15.78;40.67;101828.35;107096;1256;24208;-53
2023/12/27 09:27:44;;;;;;;3.10;2.00;;;;;;;15.76;40.71;101832.27;107032;1272;25338;-52
2023/12/27 09:30:12;;;;;;;4.40;1.70;;;;;;;15.74;40.76;101836.34;107039;1256;25331;-52
2023/12/27 09:32:39;;;;;;;3.40;1.80;;;;;;;15.69;40.80;101837.52;106383;1256;1003671;-53
2023/12/27 09:35:07;;;;;;;3.00;1.70;;;;;;;15.67;40.80;101835.64;107059;1267;25497;-52
2023/12/27 09:37:35;;;;;;;5.10;2.10;;;;;;;15.66;40.86;101833.04;106730;1257;24351;-53
2023/12/27 09:40:03;;;;;;;2.30;1.80;;;;;;;15.64;40.85;101834.48;107071;1256;25328;-52
2023/12/27 09:42:32;;;;;;;2.80;1.80;;;;;;;15.64;40.79;101835.35;107100;1267;24234;-53
2023/12/27 09:45:00;;;;;;;2.60;1.90;;;;;;;15.64;40.77;101834.66;107174;1267;25285;-52
2023/12/27 09:47:28;;;;;;;2.80;1.70;;;;;;;15.64;40.71;101835.53;107167;1267;25342;-52
2023/12/27 09:49:55;;;;;;;3.20;1.80;;;;;;;15.66;40.85;101835.84;106285;1269;1002561;-52
2023/12/27 09:52:23;;;;;;;2.10;1.80;;;;;;;15.67;40.71;101838.79;107101;1267;25422;-53
2023/12/27 09:54:50;;;;;;;4.60;1.90;;;;;;;15.69;40.88;101842.41;106925;1268;25427;-53
2023/12/27 09:57:17;;;;;;;7.70;2.10;;;;;;;15.71;40.86;101842.53;107063;1264;25366;-52
2023/12/27 09:59:45;;;;;;;3.70;1.90;;;;;;;15.74;40.83;101843.67;106694;1271;25489;-53
2023/12/27 10:02:17;;;;;;;2.80;1.70;;;;;;;15.78;40.95;101846.55;106728;1272;25473;-52
2023/12/27 10:04:52;;;;;;;1.90;1.70;;;;;;;15.82;40.91;101849.59;106631;1274;25348;-52
2023/12/27 10:07:19;;;;;;;2.90;1.80;;;;;;;15.84;40.59;101848.65;106008;1272;1003263;-53
2023/12/27 10:09:47;;;;;;;4.60;1.70;;;;;;;15.87;40.58;101848.75;106656;1272;25489;-53
2023/12/27 10:12:14;;;;;;;3.00;1.60;;;;;;;15.91;40.73;101852.86;106582;1272;25368;-53
2023/12/27 10:14:41;;;;;;;3.30;1.90;;;;;;;15.93;40.46;101857.33;106716;1260;25463;-53
2023/12/27 10:17:09;;;;;;;3.10;1.80;;;;;;;15.95;40.30;101852.56;106675;1271;25454;-53
2023/12/27 10:19:40;;;;;;;5.40;2.30;;;;;;;15.95;40.25;101846.80;106646;1272;24215;-53
2023/12/27 10:22:08;;;;;;;2.70;1.60;;;;;;;15.92;40.05;101847.05;106433;1272;24392;-52
2023/12/27 10:24:35;;;;;;;2.70;1.90;;;;;;;15.88;39.99;101851.00;106811;1260;25476;-52
2023/12/27 10:27:03;;;;;;;5.80;2.00;;;;;;;15.87;40.17;101856.29;106610;1273;25422;-53
2023/12/27 10:29:34;;;;;;;3.30;1.70;;;;;;;15.87;40.42;101856.83;106794;1271;22562;-53
2023/12/27 10:32:02;;;;;;;2.90;2.00;;;;;;;15.85;40.63;101851.09;107041;1261;25360;-53
2023/12/27 10:34:30;;;;;;;6.50;1.80;;;;;;;15.88;40.86;101855.21;107120;1262;23235;-54
2023/12/27 10:36:57;;;;;;;3.00;1.90;;;;;;;15.91;41.36;101854.79;107006;1271;25376;-52
2023/12/27 10:39:25;;;;;;;2.80;1.60;;;;;;;15.94;41.69;101860.14;107098;1267;25357;-52
2023/12/27 10:41:52;;;;;;;2.70;1.60;;;;;;;15.97;41.69;101860.22;107217;1256;25409;-52
2023/12/27 10:44:20;;;;;;;6.30;2.00;;;;;;;16.00;41.58;101861.19;106829;1259;25457;-53
2023/12/27 10:46:48;;;;;;;2.60;1.60;;;;;;;16.03;40.87;101859.87;107124;1257;25351;-53
2023/12/27 10:49:15;;;;;;;6.00;2.10;;;;;;;16.02;40.61;101852.39;106871;1258;25457;-52
2023/12/27 10:51:43;;;;;;;1.90;1.50;;;;;;;15.82;40.78;101851.34;107195;1256;25418;-52
2023/12/27 10:54:10;;;;;;;3.40;2.00;;;;;;;15.79;40.54;101855.08;107091;1269;25373;-52
2023/12/27 10:56:38;;;;;;;5.60;1.80;;;;;;;15.76;40.61;101854.30;106866;1270;25482;-53
2023/12/27 10:59:06;;;;;;;2.20;1.70;;;;;;;15.80;40.31;101860.84;107179;1254;25351;-53
2023/12/27 11:01:34;;;;;;;2.10;1.90;;;;;;;15.88;40.02;101862.56;106275;1255;1003087;-52
2023/12/27 11:04:09;;;;;;;2.80;1.80;;;;;;;15.87;39.77;101859.61;107081;1256;24255;-53
2023/12/27 11:06:37;;;;;;;2.50;1.70;;;;;;;15.85;39.79;101854.06;107123;1256;25338;-53
2023/12/27 11:09:07;;;;;;;3.10;1.70;;;;;;;15.82;39.72;101853.61;107082;1255;24404;-52
2023/12/27 11:11:39;;;;;;;2.70;1.60;;;;;;;15.79;39.62;101860.54;107106;1265;25450;-53
2023/12/27 11:14:09;;;;;;;2.20;1.60;;;;;;;15.75;39.53;101863.09;106768;1272;25626;-53